sensor_id;sensor_type;location;lat;lon;timestamp;P1;durP1;ratioP1;P2;durP2;ratioP2
65469;SDS011;52067;50.710;14.492;2023-05-31T00:01:27;4.90;;;2.75;;
65469;SDS011;52067;50.710;14.492;2023-05-31T00:03:53;5.55;;;2.80;;
65469;SDS011;52067;50.710;14.492;2023-05-31T00:06:18;6.28;;;3.05;;
65469;SDS011;52067;50.710;14.492;2023-05-31T00:08:43;9.57;;;3.97;;
65469;SDS011;52067;50.710;14.492;2023-05-31T00:14:18;10.65;;;3.97;;
65469;SDS011;52067;50.710;14.492;2023-05-31T00:20:02;7.75;;;4.05;;
65469;SDS011;52067;50.710;14.492;2023-05-31T00:25:46;7.95;;;3.75;;
65469;SDS011;52067;50.710;14.492;2023-05-31T00:28:11;8.60;;;3.63;;
65469;SDS011;52067;50.710;14.492;2023-05-31T00:30:37;8.95;;;3.22;;
65469;SDS011;52067;50.710;14.492;2023-05-31T00:33:02;9.60;;;3.20;;
65469;SDS011;52067;50.710;14.492;2023-05-31T00:35:29;6.90;;;3.42;;
65469;SDS011;52067;50.710;14.492;2023-05-31T00:37:54;4.70;;;2.90;;
65469;SDS011;52067;50.710;14.492;2023-05-31T00:40:26;7.20;;;2.78;;
65469;SDS011;52067;50.710;14.492;2023-05-31T00:42:51;7.05;;;3.20;;
65469;SDS011;52067;50.710;14.492;2023-05-31T00:48:31;5.93;;;2.95;;
65469;SDS011;52067;50.710;14.492;2023-05-31T00:50:58;5.03;;;2.80;;
65469;SDS011;52067;50.710;14.492;2023-05-31T00:53:24;7.35;;;3.00;;
65469;SDS011;52067;50.710;14.492;2023-05-31T00:55:49;6.57;;;3.08;;
65469;SDS011;52067;50.710;14.492;2023-05-31T00:58:16;6.55;;;2.85;;
65469;SDS011;52067;50.710;14.492;2023-05-31T01:00:42;6.82;;;2.58;;
65469;SDS011;52067;50.710;14.492;2023-05-31T01:03:08;6.32;;;3.10;;
65469;SDS011;52067;50.710;14.492;2023-05-31T01:05:34;5.47;;;2.40;;
65469;SDS011;52067;50.710;14.492;2023-05-31T01:12:01;6.63;;;3.20;;
65469;SDS011;52067;50.710;14.492;2023-05-31T01:25:57;5.55;;;3.17;;
65469;SDS011;52067;50.710;14.492;2023-05-31T01:28:32;6.93;;;3.20;;
65469;SDS011;52067;50.710;14.492;2023-05-31T01:34:07;7.30;;;3.28;;
65469;SDS011;52067;50.710;14.492;2023-05-31T01:39:48;7.95;;;3.10;;
65469;SDS011;52067;50.710;14.492;2023-05-31T01:42:16;8.10;;;3.25;;
65469;SDS011;52067;50.710;14.492;2023-05-31T01:44:42;6.22;;;2.92;;
65469;SDS011;52067;50.710;14.492;2023-05-31T01:47:09;6.53;;;2.72;;
65469;SDS011;52067;50.710;14.492;2023-05-31T01:49:35;6.30;;;2.95;;
65469;SDS011;52067;50.710;14.492;2023-05-31T01:52:03;3.80;;;2.30;;
65469;SDS011;52067;50.710;14.492;2023-05-31T01:54:31;4.75;;;2.42;;
65469;SDS011;52067;50.710;14.492;2023-05-31T01:56:56;6.45;;;2.60;;
65469;SDS011;52067;50.710;14.492;2023-05-31T01:59:24;4.80;;;2.80;;
65469;SDS011;52067;50.710;14.492;2023-05-31T02:01:50;4.60;;;2.50;;
65469;SDS011;52067;50.710;14.492;2023-05-31T02:04:17;6.88;;;2.70;;
65469;SDS011;52067;50.710;14.492;2023-05-31T02:06:44;4.60;;;2.63;;
65469;SDS011;52067;50.710;14.492;2023-05-31T02:09:09;5.88;;;2.83;;
65469;SDS011;52067;50.710;14.492;2023-05-31T02:11:34;4.63;;;2.60;;
65469;SDS011;52067;50.710;14.492;2023-05-31T02:14:00;5.65;;;2.90;;
65469;SDS011;52067;50.710;14.492;2023-05-31T02:16:25;5.40;;;2.70;;
65469;SDS011;52067;50.710;14.492;2023-05-31T02:18:50;6.72;;;3.20;;
65469;SDS011;52067;50.710;14.492;2023-05-31T02:21:16;7.35;;;2.58;;
65469;SDS011;52067;50.710;14.492;2023-05-31T02:23:42;6.90;;;2.90;;
65469;SDS011;52067;50.710;14.492;2023-05-31T02:26:07;6.78;;;3.03;;
65469;SDS011;52067;50.710;14.492;2023-05-31T02:28:36;8.98;;;2.90;;
65469;SDS011;52067;50.710;14.492;2023-05-31T02:31:01;5.82;;;2.90;;
65469;SDS011;52067;50.710;14.492;2023-05-31T02:33:27;9.55;;;3.60;;
65469;SDS011;52067;50.710;14.492;2023-05-31T02:35:53;4.85;;;2.78;;
65469;SDS011;52067;50.710;14.492;2023-05-31T02:38:19;6.28;;;2.92;;
65469;SDS011;52067;50.710;14.492;2023-05-31T02:40:45;7.00;;;3.10;;
65469;SDS011;52067;50.710;14.492;2023-05-31T02:43:11;6.75;;;2.80;;
65469;SDS011;52067;50.710;14.492;2023-05-31T02:45:36;4.80;;;2.72;;
65469;SDS011;52067;50.710;14.492;2023-05-31T02:48:02;7.95;;;3.40;;
65469;SDS011;52067;50.710;14.492;2023-05-31T02:53:45;7.60;;;2.63;;
65469;SDS011;52067;50.710;14.492;2023-05-31T02:59:28;7.13;;;2.80;;
65469;SDS011;52067;50.710;14.492;2023-05-31T03:05:12;5.75;;;2.70;;
65469;SDS011;52067;50.710;14.492;2023-05-31T03:07:37;5.10;;;2.50;;
65469;SDS011;52067;50.710;14.492;2023-05-31T03:10:03;4.25;;;2.60;;
65469;SDS011;52067;50.710;14.492;2023-05-31T03:12:29;6.82;;;3.10;;
65469;SDS011;52067;50.710;14.492;2023-05-31T03:14:55;11.35;;;3.63;;
65469;SDS011;52067;50.710;14.492;2023-05-31T03:17:21;6.10;;;3.58;;
65469;SDS011;52067;50.710;14.492;2023-05-31T03:19:46;5.22;;;3.13;;
65469;SDS011;52067;50.710;14.492;2023-05-31T03:22:11;6.57;;;3.30;;
65469;SDS011;52067;50.710;14.492;2023-05-31T03:27:55;5.85;;;3.50;;
65469;SDS011;52067;50.710;14.492;2023-05-31T03:33:37;6.80;;;2.80;;
65469;SDS011;52067;50.710;14.492;2023-05-31T03:36:02;7.10;;;3.42;;
65469;SDS011;52067;50.710;14.492;2023-05-31T03:38:29;6.80;;;3.55;;
65469;SDS011;52067;50.710;14.492;2023-05-31T03:40:55;6.00;;;2.88;;
65469;SDS011;52067;50.710;14.492;2023-05-31T03:43:20;9.10;;;3.38;;
65469;SDS011;52067;50.710;14.492;2023-05-31T03:45:46;6.60;;;3.25;;
65469;SDS011;52067;50.710;14.492;2023-05-31T03:48:14;6.65;;;3.35;;
65469;SDS011;52067;50.710;14.492;2023-05-31T03:50:42;6.15;;;3.53;;
65469;SDS011;52067;50.710;14.492;2023-05-31T03:56:26;4.55;;;2.90;;
65469;SDS011;52067;50.710;14.492;2023-05-31T03:58:52;7.85;;;3.70;;
65469;SDS011;52067;50.710;14.492;2023-05-31T04:01:17;9.48;;;3.35;;
65469;SDS011;52067;50.710;14.492;2023-05-31T04:03:43;6.28;;;2.92;;
65469;SDS011;52067;50.710;14.492;2023-05-31T04:06:09;5.22;;;2.85;;
65469;SDS011;52067;50.710;14.492;2023-05-31T04:08:35;6.88;;;3.20;;
65469;SDS011;52067;50.710;14.492;2023-05-31T04:11:03;4.45;;;2.53;;
65469;SDS011;52067;50.710;14.492;2023-05-31T04:13:29;4.40;;;2.70;;
65469;SDS011;52067;50.710;14.492;2023-05-31T04:19:13;9.32;;;2.83;;
65469;SDS011;52067;50.710;14.492;2023-05-31T04:21:38;6.22;;;3.08;;
65469;SDS011;52067;50.710;14.492;2023-05-31T04:24:04;7.07;;;2.95;;
65469;SDS011;52067;50.710;14.492;2023-05-31T04:26:30;7.75;;;2.90;;
65469;SDS011;52067;50.710;14.492;2023-05-31T04:28:57;5.45;;;2.70;;
65469;SDS011;52067;50.710;14.492;2023-05-31T04:31:22;7.90;;;3.03;;
65469;SDS011;52067;50.710;14.492;2023-05-31T04:33:49;4.72;;;2.60;;
65469;SDS011;52067;50.710;14.492;2023-05-31T04:36:16;6.78;;;2.83;;
65469;SDS011;52067;50.710;14.492;2023-05-31T04:41:57;4.57;;;2.63;;
65469;SDS011;52067;50.710;14.492;2023-05-31T04:47:40;11.60;;;4.28;;
65469;SDS011;52067;50.710;14.492;2023-05-31T04:50:06;9.85;;;3.70;;
65469;SDS011;52067;50.710;14.492;2023-05-31T04:52:31;8.98;;;4.03;;
65469;SDS011;52067;50.710;14.492;2023-05-31T04:55:00;5.15;;;2.60;;
65469;SDS011;52067;50.710;14.492;2023-05-31T04:57:27;8.68;;;2.55;;
65469;SDS011;52067;50.710;14.492;2023-05-31T04:59:53;8.35;;;2.50;;
65469;SDS011;52067;50.710;14.492;2023-05-31T05:02:24;4.90;;;2.65;;
65469;SDS011;52067;50.710;14.492;2023-05-31T05:04:52;4.53;;;2.42;;
65469;SDS011;52067;50.710;14.492;2023-05-31T05:10:27;6.80;;;2.30;;
65469;SDS011;52067;50.710;14.492;2023-05-31T05:16:11;4.28;;;2.60;;
65469;SDS011;52067;50.710;14.492;2023-05-31T05:18:36;4.43;;;2.47;;
65469;SDS011;52067;50.710;14.492;2023-05-31T05:21:02;7.13;;;2.70;;
65469;SDS011;52067;50.710;14.492;2023-05-31T05:23:28;4.70;;;2.40;;
65469;SDS011;52067;50.710;14.492;2023-05-31T05:25:54;4.93;;;2.60;;
65469;SDS011;52067;50.710;14.492;2023-05-31T05:28:20;13.32;;;2.60;;
65469;SDS011;52067;50.710;14.492;2023-05-31T05:30:47;5.53;;;2.30;;
65469;SDS011;52067;50.710;14.492;2023-05-31T05:33:12;5.10;;;2.38;;
65469;SDS011;52067;50.710;14.492;2023-05-31T05:38:56;5.22;;;2.30;;
65469;SDS011;52067;50.710;14.492;2023-05-31T05:44:37;6.50;;;2.30;;
65469;SDS011;52067;50.710;14.492;2023-05-31T05:50:24;6.88;;;2.50;;
65469;SDS011;52067;50.710;14.492;2023-05-31T05:52:49;4.55;;;2.20;;
65469;SDS011;52067;50.710;14.492;2023-05-31T05:55:15;6.30;;;2.72;;
65469;SDS011;52067;50.710;14.492;2023-05-31T05:57:40;13.95;;;2.80;;
65469;SDS011;52067;50.710;14.492;2023-05-31T06:00:06;4.90;;;2.55;;
65469;SDS011;52067;50.710;14.492;2023-05-31T06:02:36;6.22;;;2.20;;
65469;SDS011;52067;50.710;14.492;2023-05-31T06:05:02;8.27;;;2.60;;
65469;SDS011;52067;50.710;14.492;2023-05-31T06:07:28;7.68;;;2.30;;
65469;SDS011;52067;50.710;14.492;2023-05-31T06:13:05;7.25;;;2.63;;
65469;SDS011;52067;50.710;14.492;2023-05-31T06:18:47;8.15;;;2.42;;
65469;SDS011;52067;50.710;14.492;2023-05-31T06:24:30;5.80;;;2.40;;
65469;SDS011;52067;50.710;14.492;2023-05-31T06:26:56;5.20;;;2.53;;
65469;SDS011;52067;50.710;14.492;2023-05-31T06:29:21;8.82;;;2.70;;
65469;SDS011;52067;50.710;14.492;2023-05-31T06:31:47;6.55;;;2.38;;
65469;SDS011;52067;50.710;14.492;2023-05-31T06:34:12;4.32;;;2.10;;
65469;SDS011;52067;50.710;14.492;2023-05-31T06:36:37;9.20;;;2.50;;
65469;SDS011;52067;50.710;14.492;2023-05-31T06:39:09;4.63;;;2.15;;
65469;SDS011;52067;50.710;14.492;2023-05-31T06:41:34;4.65;;;2.05;;
65469;SDS011;52067;50.710;14.492;2023-05-31T06:44:01;8.02;;;2.22;;
65469;SDS011;52067;50.710;14.492;2023-05-31T06:46:27;6.35;;;2.30;;
65469;SDS011;52067;50.710;14.492;2023-05-31T06:48:53;8.23;;;2.20;;
65469;SDS011;52067;50.710;14.492;2023-05-31T06:51:18;5.55;;;2.20;;
65469;SDS011;52067;50.710;14.492;2023-05-31T06:53:45;10.82;;;2.58;;
65469;SDS011;52067;50.710;14.492;2023-05-31T06:56:14;7.47;;;2.20;;
65469;SDS011;52067;50.710;14.492;2023-05-31T06:58:40;6.25;;;2.25;;
65469;SDS011;52067;50.710;14.492;2023-05-31T07:01:06;7.93;;;1.92;;
65469;SDS011;52067;50.710;14.492;2023-05-31T07:03:32;7.53;;;2.10;;
65469;SDS011;52067;50.710;14.492;2023-05-31T07:05:57;8.80;;;2.50;;
65469;SDS011;52067;50.710;14.492;2023-05-31T07:08:23;6.40;;;2.40;;
65469;SDS011;52067;50.710;14.492;2023-05-31T07:10:48;6.88;;;2.22;;
65469;SDS011;52067;50.710;14.492;2023-05-31T07:13:13;4.70;;;2.10;;
65469;SDS011;52067;50.710;14.492;2023-05-31T07:15:39;5.78;;;2.00;;
65469;SDS011;52067;50.710;14.492;2023-05-31T07:21:23;9.82;;;1.98;;
65469;SDS011;52067;50.710;14.492;2023-05-31T07:23:49;7.93;;;2.10;;
65469;SDS011;52067;50.710;14.492;2023-05-31T07:26:15;8.23;;;1.98;;
65469;SDS011;52067;50.710;14.492;2023-05-31T07:28:44;7.43;;;2.20;;
65469;SDS011;52067;50.710;14.492;2023-05-31T07:31:10;5.68;;;1.90;;
65469;SDS011;52067;50.710;14.492;2023-05-31T07:33:35;6.97;;;1.80;;
65469;SDS011;52067;50.710;14.492;2023-05-31T07:36:01;5.60;;;1.70;;
65469;SDS011;52067;50.710;14.492;2023-05-31T07:38:26;7.55;;;1.75;;
65469;SDS011;52067;50.710;14.492;2023-05-31T07:40:52;7.65;;;1.88;;
65469;SDS011;52067;50.710;14.492;2023-05-31T07:43:18;4.57;;;1.63;;
65469;SDS011;52067;50.710;14.492;2023-05-31T07:45:49;4.95;;;1.63;;
65469;SDS011;52067;50.710;14.492;2023-05-31T07:48:18;5.72;;;1.80;;
65469;SDS011;52067;50.710;14.492;2023-05-31T07:50:44;4.88;;;1.73;;
65469;SDS011;52067;50.710;14.492;2023-05-31T07:53:11;3.70;;;1.98;;
65469;SDS011;52067;50.710;14.492;2023-05-31T07:55:37;11.35;;;1.83;;
65469;SDS011;52067;50.710;14.492;2023-05-31T07:58:02;7.32;;;1.90;;
65469;SDS011;52067;50.710;14.492;2023-05-31T08:00:28;6.35;;;1.90;;
65469;SDS011;52067;50.710;14.492;2023-05-31T08:02:54;4.45;;;1.75;;
65469;SDS011;52067;50.710;14.492;2023-05-31T08:05:19;5.63;;;1.70;;
65469;SDS011;52067;50.710;14.492;2023-05-31T08:07:45;2.78;;;1.30;;
65469;SDS011;52067;50.710;14.492;2023-05-31T08:13:02;5.88;;;1.63;;
65469;SDS011;52067;50.710;14.492;2023-05-31T08:18:46;4.38;;;2.10;;
65469;SDS011;52067;50.710;14.492;2023-05-31T08:21:12;11.43;;;1.90;;
65469;SDS011;52067;50.710;14.492;2023-05-31T08:23:37;3.67;;;1.80;;
65469;SDS011;52067;50.710;14.492;2023-05-31T08:26:02;2.83;;;1.35;;
65469;SDS011;52067;50.710;14.492;2023-05-31T08:28:28;5.63;;;1.70;;
65469;SDS011;52067;50.710;14.492;2023-05-31T08:30:55;5.25;;;1.50;;
65469;SDS011;52067;50.710;14.492;2023-05-31T08:33:20;3.20;;;1.60;;
65469;SDS011;52067;50.710;14.492;2023-05-31T08:35:46;4.00;;;1.65;;
65469;SDS011;52067;50.710;14.492;2023-05-31T08:38:11;3.17;;;1.42;;
65469;SDS011;52067;50.710;14.492;2023-05-31T08:40:37;4.13;;;1.85;;
65469;SDS011;52067;50.710;14.492;2023-05-31T08:43:07;2.85;;;1.60;;
65469;SDS011;52067;50.710;14.492;2023-05-31T08:45:40;4.72;;;1.50;;
65469;SDS011;52067;50.710;14.492;2023-05-31T08:51:07;2.75;;;1.30;;
65469;SDS011;52067;50.710;14.492;2023-05-31T08:53:34;8.88;;;1.70;;
65469;SDS011;52067;50.710;14.492;2023-05-31T08:56:00;6.13;;;2.00;;
65469;SDS011;52067;50.710;14.492;2023-05-31T08:58:26;3.42;;;1.70;;
65469;SDS011;52067;50.710;14.492;2023-05-31T09:00:53;6.35;;;1.60;;
65469;SDS011;52067;50.710;14.492;2023-05-31T09:03:19;3.50;;;1.48;;
65469;SDS011;52067;50.710;14.492;2023-05-31T09:05:47;3.67;;;1.50;;
65469;SDS011;52067;50.710;14.492;2023-05-31T09:08:13;4.28;;;1.60;;
65469;SDS011;52067;50.710;14.492;2023-05-31T09:10:39;4.88;;;1.50;;
65469;SDS011;52067;50.710;14.492;2023-05-31T09:13:04;5.28;;;1.50;;
65469;SDS011;52067;50.710;14.492;2023-05-31T09:15:31;4.43;;;1.55;;
65469;SDS011;52067;50.710;14.492;2023-05-31T09:18:11;9.20;;;1.55;;
65469;SDS011;52067;50.710;14.492;2023-05-31T09:20:47;6.15;;;1.77;;
65469;SDS011;52067;50.710;14.492;2023-05-31T09:23:13;2.95;;;1.52;;
65469;SDS011;52067;50.710;14.492;2023-05-31T09:25:45;4.03;;;1.95;;
65469;SDS011;52067;50.710;14.492;2023-05-31T09:28:12;2.45;;;1.27;;
65469;SDS011;52067;50.710;14.492;2023-05-31T09:30:38;4.90;;;1.27;;
65469;SDS011;52067;50.710;14.492;2023-05-31T09:33:03;4.13;;;1.50;;
65469;SDS011;52067;50.710;14.492;2023-05-31T09:35:30;9.32;;;1.90;;
65469;SDS011;52067;50.710;14.492;2023-05-31T09:37:55;3.60;;;1.58;;
65469;SDS011;52067;50.710;14.492;2023-05-31T09:40:29;6.45;;;1.50;;
65469;SDS011;52067;50.710;14.492;2023-05-31T09:42:56;3.97;;;1.83;;
65469;SDS011;52067;50.710;14.492;2023-05-31T09:45:22;3.72;;;1.63;;
65469;SDS011;52067;50.710;14.492;2023-05-31T09:47:49;4.90;;;1.65;;
65469;SDS011;52067;50.710;14.492;2023-05-31T09:50:15;8.27;;;1.80;;
65469;SDS011;52067;50.710;14.492;2023-05-31T09:52:48;4.28;;;1.70;;
65469;SDS011;52067;50.710;14.492;2023-05-31T09:55:19;4.05;;;1.40;;
65469;SDS011;52067;50.710;14.492;2023-05-31T09:57:44;3.58;;;1.80;;
65469;SDS011;52067;50.710;14.492;2023-05-31T10:00:11;5.30;;;1.67;;
65469;SDS011;52067;50.710;14.492;2023-05-31T10:02:42;4.93;;;1.90;;
65469;SDS011;52067;50.710;14.492;2023-05-31T10:05:09;4.90;;;2.20;;
65469;SDS011;52067;50.710;14.492;2023-05-31T10:07:36;7.47;;;1.80;;
65469;SDS011;52067;50.710;14.492;2023-05-31T10:10:01;5.22;;;1.60;;
65469;SDS011;52067;50.710;14.492;2023-05-31T10:12:28;5.20;;;1.73;;
65469;SDS011;52067;50.710;14.492;2023-05-31T10:14:55;6.15;;;1.70;;
65469;SDS011;52067;50.710;14.492;2023-05-31T10:17:25;5.35;;;1.67;;
65469;SDS011;52067;50.710;14.492;2023-05-31T10:19:57;5.00;;;1.98;;
65469;SDS011;52067;50.710;14.492;2023-05-31T10:22:26;5.45;;;1.90;;
65469;SDS011;52067;50.710;14.492;2023-05-31T10:25:09;5.82;;;1.98;;
65469;SDS011;52067;50.710;14.492;2023-05-31T10:27:42;3.47;;;1.50;;
65469;SDS011;52067;50.710;14.492;2023-05-31T10:30:10;4.93;;;1.77;;
65469;SDS011;52067;50.710;14.492;2023-05-31T10:32:42;4.78;;;1.67;;
65469;SDS011;52067;50.710;14.492;2023-05-31T10:35:11;5.78;;;1.77;;
65469;SDS011;52067;50.710;14.492;2023-05-31T10:37:40;5.38;;;1.63;;
65469;SDS011;52067;50.710;14.492;2023-05-31T10:40:14;5.22;;;1.73;;
65469;SDS011;52067;50.710;14.492;2023-05-31T10:45:40;6.95;;;1.70;;
65469;SDS011;52067;50.710;14.492;2023-05-31T10:50:57;7.75;;;1.90;;
65469;SDS011;52067;50.710;14.492;2023-05-31T10:53:28;3.55;;;2.00;;
65469;SDS011;52067;50.710;14.492;2023-05-31T10:56:00;7.95;;;2.15;;
65469;SDS011;52067;50.710;14.492;2023-05-31T10:58:28;6.35;;;1.90;;
65469;SDS011;52067;50.710;14.492;2023-05-31T11:00:56;4.78;;;1.98;;
65469;SDS011;52067;50.710;14.492;2023-05-31T11:03:23;2.95;;;1.77;;
65469;SDS011;52067;50.710;14.492;2023-05-31T11:05:55;3.78;;;1.85;;
65469;SDS011;52067;50.710;14.492;2023-05-31T11:08:22;3.22;;;1.88;;
65469;SDS011;52067;50.710;14.492;2023-05-31T11:10:48;5.18;;;1.65;;
65469;SDS011;52067;50.710;14.492;2023-05-31T11:13:14;5.10;;;2.03;;
65469;SDS011;52067;50.710;14.492;2023-05-31T11:15:40;6.63;;;2.00;;
65469;SDS011;52067;50.710;14.492;2023-05-31T11:18:09;6.43;;;2.00;;
65469;SDS011;52067;50.710;14.492;2023-05-31T11:20:40;7.93;;;2.03;;
65469;SDS011;52067;50.710;14.492;2023-05-31T11:23:24;3.10;;;1.83;;
65469;SDS011;52067;50.710;14.492;2023-05-31T11:28:58;9.13;;;2.00;;
65469;SDS011;52067;50.710;14.492;2023-05-31T11:32:11;6.78;;;2.00;;
65469;SDS011;52067;50.710;14.492;2023-05-31T11:34:21;5.72;;;1.95;;
65469;SDS011;52067;50.710;14.492;2023-05-31T11:36:49;3.38;;;1.75;;
65469;SDS011;52067;50.710;14.492;2023-05-31T11:39:15;2.78;;;1.58;;
65469;SDS011;52067;50.710;14.492;2023-05-31T11:41:42;5.25;;;1.75;;
65469;SDS011;52067;50.710;14.492;2023-05-31T11:44:10;4.03;;;1.70;;
65469;SDS011;52067;50.710;14.492;2023-05-31T11:46:36;6.07;;;1.80;;
65469;SDS011;52067;50.710;14.492;2023-05-31T11:49:09;4.30;;;1.85;;
65469;SDS011;52067;50.710;14.492;2023-05-31T11:51:35;3.95;;;1.77;;
65469;SDS011;52067;50.710;14.492;2023-05-31T11:54:03;8.35;;;1.95;;
65469;SDS011;52067;50.710;14.492;2023-05-31T11:56:29;4.25;;;1.85;;
65469;SDS011;52067;50.710;14.492;2023-05-31T11:58:57;15.10;;;2.95;;
65469;SDS011;52067;50.710;14.492;2023-05-31T12:01:23;4.55;;;1.77;;
65469;SDS011;52067;50.710;14.492;2023-05-31T12:03:59;6.68;;;1.92;;
65469;SDS011;52067;50.710;14.492;2023-05-31T12:06:25;17.42;;;3.63;;
65469;SDS011;52067;50.710;14.492;2023-05-31T12:08:54;12.88;;;2.78;;
65469;SDS011;52067;50.710;14.492;2023-05-31T12:11:20;10.25;;;2.00;;
65469;SDS011;52067;50.710;14.492;2023-05-31T12:13:49;13.73;;;2.10;;
65469;SDS011;52067;50.710;14.492;2023-05-31T12:16:14;3.75;;;1.65;;
65469;SDS011;52067;50.710;14.492;2023-05-31T12:18:40;6.72;;;2.00;;
65469;SDS011;52067;50.710;14.492;2023-05-31T12:21:09;4.22;;;1.80;;
65469;SDS011;52067;50.710;14.492;2023-05-31T12:23:52;5.68;;;1.95;;
65469;SDS011;52067;50.710;14.492;2023-05-31T12:26:22;4.05;;;2.03;;
65469;SDS011;52067;50.710;14.492;2023-05-31T12:28:48;4.88;;;1.70;;
65469;SDS011;52067;50.710;14.492;2023-05-31T12:31:23;4.10;;;1.90;;
65469;SDS011;52067;50.710;14.492;2023-05-31T12:33:59;3.85;;;1.75;;
65469;SDS011;52067;50.710;14.492;2023-05-31T12:36:36;4.10;;;1.83;;
65469;SDS011;52067;50.710;14.492;2023-05-31T12:39:18;5.03;;;1.58;;
65469;SDS011;52067;50.710;14.492;2023-05-31T12:41:45;6.00;;;2.17;;
65469;SDS011;52067;50.710;14.492;2023-05-31T12:44:14;4.55;;;1.75;;
65469;SDS011;52067;50.710;14.492;2023-05-31T12:46:42;2.72;;;1.70;;
65469;SDS011;52067;50.710;14.492;2023-05-31T12:49:19;3.42;;;1.70;;
65469;SDS011;52067;50.710;14.492;2023-05-31T12:54:31;3.30;;;1.90;;
65469;SDS011;52067;50.710;14.492;2023-05-31T12:56:59;7.70;;;1.83;;
65469;SDS011;52067;50.710;14.492;2023-05-31T12:59:29;4.78;;;1.95;;
65469;SDS011;52067;50.710;14.492;2023-05-31T13:01:55;3.97;;;1.90;;
65469;SDS011;52067;50.710;14.492;2023-05-31T13:04:21;5.05;;;2.05;;
65469;SDS011;52067;50.710;14.492;2023-05-31T13:06:46;6.82;;;1.90;;
65469;SDS011;52067;50.710;14.492;2023-05-31T13:09:12;15.32;;;2.00;;
65469;SDS011;52067;50.710;14.492;2023-05-31T13:11:37;7.88;;;1.77;;
65469;SDS011;52067;50.710;14.492;2023-05-31T13:14:04;3.85;;;1.80;;
65469;SDS011;52067;50.710;14.492;2023-05-31T13:16:30;8.02;;;1.75;;
65469;SDS011;52067;50.710;14.492;2023-05-31T13:18:57;5.47;;;1.70;;
65469;SDS011;52067;50.710;14.492;2023-05-31T13:21:23;3.85;;;1.60;;
65469;SDS011;52067;50.710;14.492;2023-05-31T13:23:48;5.20;;;1.60;;
65469;SDS011;52067;50.710;14.492;2023-05-31T13:26:14;3.08;;;1.70;;
65469;SDS011;52067;50.710;14.492;2023-05-31T13:28:40;3.97;;;1.90;;
65469;SDS011;52067;50.710;14.492;2023-05-31T13:31:05;9.52;;;2.15;;
65469;SDS011;52067;50.710;14.492;2023-05-31T13:33:31;3.90;;;1.90;;
65469;SDS011;52067;50.710;14.492;2023-05-31T13:35:57;2.88;;;1.70;;
65469;SDS011;52067;50.710;14.492;2023-05-31T13:38:23;5.95;;;1.85;;
65469;SDS011;52067;50.710;14.492;2023-05-31T13:40:48;4.85;;;1.75;;
65469;SDS011;52067;50.710;14.492;2023-05-31T13:43:16;4.10;;;1.83;;
65469;SDS011;52067;50.710;14.492;2023-05-31T13:45:43;5.78;;;1.63;;
65469;SDS011;52067;50.710;14.492;2023-05-31T13:48:08;7.78;;;1.85;;
65469;SDS011;52067;50.710;14.492;2023-05-31T13:50:34;5.45;;;1.83;;
65469;SDS011;52067;50.710;14.492;2023-05-31T13:52:59;3.10;;;1.80;;
65469;SDS011;52067;50.710;14.492;2023-05-31T13:55:25;4.68;;;1.70;;
65469;SDS011;52067;50.710;14.492;2023-05-31T13:57:50;5.10;;;1.70;;
65469;SDS011;52067;50.710;14.492;2023-05-31T14:00:16;4.28;;;2.00;;
65469;SDS011;52067;50.710;14.492;2023-05-31T14:02:42;4.38;;;1.73;;
65469;SDS011;52067;50.710;14.492;2023-05-31T14:05:08;5.50;;;1.83;;
65469;SDS011;52067;50.710;14.492;2023-05-31T14:07:33;3.45;;;1.88;;
65469;SDS011;52067;50.710;14.492;2023-05-31T14:10:00;3.72;;;1.50;;
65469;SDS011;52067;50.710;14.492;2023-05-31T14:12:25;6.88;;;1.65;;
65469;SDS011;52067;50.710;14.492;2023-05-31T14:14:51;5.15;;;1.90;;
65469;SDS011;52067;50.710;14.492;2023-05-31T14:17:16;4.70;;;1.67;;
65469;SDS011;52067;50.710;14.492;2023-05-31T14:19:42;4.05;;;1.83;;
65469;SDS011;52067;50.710;14.492;2023-05-31T14:22:07;5.57;;;1.88;;
65469;SDS011;52067;50.710;14.492;2023-05-31T14:24:33;6.07;;;1.92;;
65469;SDS011;52067;50.710;14.492;2023-05-31T14:26:58;2.50;;;1.50;;
65469;SDS011;52067;50.710;14.492;2023-05-31T14:29:23;5.70;;;2.10;;
65469;SDS011;52067;50.710;14.492;2023-05-31T14:31:49;4.45;;;1.88;;
65469;SDS011;52067;50.710;14.492;2023-05-31T14:34:15;9.45;;;1.70;;
65469;SDS011;52067;50.710;14.492;2023-05-31T14:36:40;4.88;;;1.80;;
65469;SDS011;52067;50.710;14.492;2023-05-31T14:39:06;3.15;;;1.70;;
65469;SDS011;52067;50.710;14.492;2023-05-31T14:41:31;7.22;;;2.10;;
65469;SDS011;52067;50.710;14.492;2023-05-31T14:44:00;3.83;;;1.77;;
65469;SDS011;52067;50.710;14.492;2023-05-31T14:46:26;4.55;;;1.75;;
65469;SDS011;52067;50.710;14.492;2023-05-31T14:48:51;4.15;;;1.75;;
65469;SDS011;52067;50.710;14.492;2023-05-31T14:51:18;4.22;;;1.90;;
65469;SDS011;52067;50.710;14.492;2023-05-31T14:53:44;9.07;;;1.90;;
65469;SDS011;52067;50.710;14.492;2023-05-31T14:56:10;3.35;;;1.60;;
65469;SDS011;52067;50.710;14.492;2023-05-31T14:58:35;3.72;;;1.90;;
65469;SDS011;52067;50.710;14.492;2023-05-31T15:01:01;6.60;;;1.70;;
65469;SDS011;52067;50.710;14.492;2023-05-31T15:03:26;10.82;;;1.80;;
65469;SDS011;52067;50.710;14.492;2023-05-31T15:05:51;3.30;;;1.75;;
65469;SDS011;52067;50.710;14.492;2023-05-31T15:08:17;7.93;;;1.92;;
65469;SDS011;52067;50.710;14.492;2023-05-31T15:10:42;6.40;;;2.03;;
65469;SDS011;52067;50.710;14.492;2023-05-31T15:13:08;3.25;;;1.65;;
65469;SDS011;52067;50.710;14.492;2023-05-31T15:15:33;4.85;;;1.83;;
65469;SDS011;52067;50.710;14.492;2023-05-31T15:18:04;4.50;;;2.03;;
65469;SDS011;52067;50.710;14.492;2023-05-31T15:20:30;4.63;;;1.88;;
65469;SDS011;52067;50.710;14.492;2023-05-31T15:22:56;5.85;;;1.73;;
65469;SDS011;52067;50.710;14.492;2023-05-31T15:25:21;4.95;;;2.10;;
65469;SDS011;52067;50.710;14.492;2023-05-31T15:27:46;4.35;;;2.00;;
65469;SDS011;52067;50.710;14.492;2023-05-31T15:30:12;4.15;;;1.92;;
65469;SDS011;52067;50.710;14.492;2023-05-31T15:32:38;4.90;;;1.80;;
65469;SDS011;52067;50.710;14.492;2023-05-31T15:35:03;3.05;;;1.75;;
65469;SDS011;52067;50.710;14.492;2023-05-31T15:37:29;5.70;;;1.90;;
65469;SDS011;52067;50.710;14.492;2023-05-31T15:39:55;4.35;;;1.85;;
65469;SDS011;52067;50.710;14.492;2023-05-31T15:42:20;4.00;;;1.92;;
65469;SDS011;52067;50.710;14.492;2023-05-31T15:44:46;4.63;;;1.70;;
65469;SDS011;52067;50.710;14.492;2023-05-31T15:47:13;4.82;;;2.00;;
65469;SDS011;52067;50.710;14.492;2023-05-31T15:49:39;4.97;;;1.83;;
65469;SDS011;52067;50.710;14.492;2023-05-31T15:52:05;3.95;;;1.90;;
65469;SDS011;52067;50.710;14.492;2023-05-31T15:54:31;4.72;;;1.58;;
65469;SDS011;52067;50.710;14.492;2023-05-31T15:56:56;8.55;;;1.80;;
65469;SDS011;52067;50.710;14.492;2023-05-31T15:59:22;5.45;;;2.03;;
65469;SDS011;52067;50.710;14.492;2023-05-31T16:01:47;6.03;;;1.80;;
65469;SDS011;52067;50.710;14.492;2023-05-31T16:04:13;4.10;;;1.92;;
65469;SDS011;52067;50.710;14.492;2023-05-31T16:06:38;6.25;;;2.00;;
65469;SDS011;52067;50.710;14.492;2023-05-31T16:09:03;7.50;;;1.95;;
65469;SDS011;52067;50.710;14.492;2023-05-31T16:11:29;5.82;;;2.10;;
65469;SDS011;52067;50.710;14.492;2023-05-31T16:13:56;6.03;;;2.50;;
65469;SDS011;52067;50.710;14.492;2023-05-31T16:16:21;4.03;;;1.98;;
65469;SDS011;52067;50.710;14.492;2023-05-31T16:18:47;5.25;;;1.80;;
65469;SDS011;52067;50.710;14.492;2023-05-31T16:21:12;3.95;;;1.80;;
65469;SDS011;52067;50.710;14.492;2023-05-31T16:23:40;7.40;;;2.00;;
65469;SDS011;52067;50.710;14.492;2023-05-31T16:26:05;4.25;;;2.05;;